Time;durP1;ratioP1;P1;durP2;ratioP2;P2;SDS_P1;SDS_P2;PMS_P1;PMS_P2;Temp;Humidity;BMP_temperature;BMP_pressure;BME280_temperature;BME280_humidity;BME280_pressure;Samples;Min_cycle;Max_cycle;Signal;HPM_P1;HPM_P2
2023/09/25 00:01:18;;;;;;;3.25;1.30;;;;;;;;;;5094177;28;20023;-77
2023/09/25 00:03:44;;;;;;;1.35;0.82;;;;;;;;;;5094085;28;20035;-77
2023/09/25 00:06:10;;;;;;;1.67;1.00;;;;;;;;;;5093811;28;20032;-77
2023/09/25 00:08:36;;;;;;;2.83;1.00;;;;;;;;;;5094971;28;20034;-77
2023/09/25 00:11:03;;;;;;;1.98;1.10;;;;;;;;;;5094012;28;20081;-77
2023/09/25 00:13:30;;;;;;;2.05;0.93;;;;;;;;;;5093643;28;20032;-77
2023/09/25 00:16:00;;;;;;;5.85;1.30;;;;;;;;;;5094024;28;20582;-77
2023/09/25 00:18:26;;;;;;;2.00;1.38;;;;;;;;;;5093633;28;20051;-77
2023/09/25 00:20:53;;;;;;;2.78;1.08;;;;;;;;;;5094461;28;20030;-77
2023/09/25 00:23:20;;;;;;;1.63;1.02;;;;;;;;;;5095089;28;20023;-77
2023/09/25 00:25:46;;;;;;;2.00;1.10;;;;;;;;;;5094391;28;20040;-77
2023/09/25 00:28:12;;;;;;;1.20;0.93;;;;;;;;;;5093389;28;20081;-78
2023/09/25 00:30:38;;;;;;;0.82;0.73;;;;;;;;;;5094601;28;20024;-77
2023/09/25 00:33:04;;;;;;;1.52;0.93;;;;;;;;;;5094696;28;20020;-76
2023/09/25 00:35:30;;;;;;;1.65;0.93;;;;;;;;;;5093548;28;20032;-78
2023/09/25 00:37:56;;;;;;;1.75;0.93;;;;;;;;;;5093496;28;20027;-76
2023/09/25 00:40:24;;;;;;;1.70;0.88;;;;;;;;;;5093070;28;20149;-78
2023/09/25 00:42:53;;;;;;;0.88;0.70;;;;;;;;;;5093084;28;20027;-77
2023/09/25 00:45:19;;;;;;;1.00;0.75;;;;;;;;;;5094555;28;20016;-78
2023/09/25 00:47:45;;;;;;;0.93;0.73;;;;;;;;;;5094020;28;20417;-77
2023/09/25 00:50:12;;;;;;;1.20;0.75;;;;;;;;;;5093248;28;20082;-77
2023/09/25 00:52:46;;;;;;;0.60;0.60;;;;;;;;;;5093189;28;20020;-78
2023/09/25 00:55:16;;;;;;;1.48;0.90;;;;;;;;;;5094366;28;20024;-78
2023/09/25 00:57:43;;;;;;;1.65;0.70;;;;;;;;;;5093405;28;20472;-77
2023/09/25 01:00:11;;;;;;;0.82;0.75;;;;;;;;;;5093212;28;20031;-78
2023/09/25 01:02:41;;;;;;;0.88;0.70;;;;;;;;;;5092720;28;20028;-77
2023/09/25 01:05:08;;;;;;;0.98;0.70;;;;;;;;;;5092985;28;20031;-77
2023/09/25 01:07:35;;;;;;;0.70;0.70;;;;;;;;;;5094439;28;20020;-77
2023/09/25 01:10:07;;;;;;;1.25;0.85;;;;;;;;;;5091922;28;20425;-77
2023/09/25 01:12:34;;;;;;;;;;;;;;;;;;5093314;28;20106;-77
2023/09/25 01:15:01;;;;;;;0.80;0.70;;;;;;;;;;5093813;28;19903;-77
2023/09/25 01:17:28;;;;;;;0.63;0.63;;;;;;;;;;5094365;28;20027;-77
2023/09/25 01:19:54;;;;;;;0.60;0.60;;;;;;;;;;5094496;28;20485;-78
2023/09/25 01:22:20;;;;;;;1.10;0.80;;;;;;;;;;5096292;28;20054;-76
2023/09/25 01:24:46;;;;;;;1.73;0.90;;;;;;;;;;5096404;28;20024;-78
2023/09/25 01:27:12;;;;;;;1.13;0.80;;;;;;;;;;5092979;28;20510;-76
2023/09/25 01:29:38;;;;;;;0.82;0.70;;;;;;;;;;5092321;28;20035;-77
2023/09/25 01:32:05;;;;;;;0.95;0.73;;;;;;;;;;5092675;28;20020;-77
2023/09/25 01:34:31;;;;;;;0.75;0.60;;;;;;;;;;5092532;28;20058;-77
2023/09/25 01:36:57;;;;;;;4.47;0.90;;;;;;;;;;5092730;28;20108;-78
2023/09/25 01:39:24;;;;;;;0.60;0.60;;;;;;;;;;5092525;28;20024;-78
2023/09/25 01:41:50;;;;;;;0.75;0.65;;;;;;;;;;5092487;28;20074;-78
2023/09/25 01:44:16;;;;;;;1.92;0.85;;;;;;;;;;5093761;28;20024;-78
2023/09/25 01:46:42;;;;;;;1.40;0.90;;;;;;;;;;5093653;28;20040;-78
2023/09/25 01:49:09;;;;;;;1.00;0.70;;;;;;;;;;5092538;28;20107;-78
2023/09/25 01:51:35;;;;;;;1.75;0.80;;;;;;;;;;5092282;28;20133;-78
2023/09/25 01:54:01;;;;;;;1.10;0.80;;;;;;;;;;5092471;28;20491;-77
2023/09/25 01:56:27;;;;;;;0.95;0.85;;;;;;;;;;5092377;28;20119;-77
2023/09/25 01:58:53;;;;;;;1.35;0.88;;;;;;;;;;5092094;28;20020;-77
2023/09/25 02:01:20;;;;;;;1.02;0.80;;;;;;;;;;5092606;28;20023;-76
2023/09/25 02:03:46;;;;;;;1.05;0.80;;;;;;;;;;5092285;28;20116;-77
2023/09/25 02:06:12;;;;;;;2.05;0.82;;;;;;;;;;5091601;28;20062;-77
2023/09/25 02:08:40;;;;;;;1.20;0.82;;;;;;;;;;5092279;28;20074;-77
2023/09/25 02:11:07;;;;;;;1.35;1.00;;;;;;;;;;5091966;28;20020;-77
2023/09/25 02:13:33;;;;;;;0.75;0.70;;;;;;;;;;5092185;28;20484;-77
2023/09/25 02:15:59;;;;;;;0.82;0.63;;;;;;;;;;5092276;28;20459;-78
2023/09/25 02:18:25;;;;;;;0.57;0.57;;;;;;;;;;5091479;28;20052;-77
2023/09/25 02:20:51;;;;;;;1.45;0.90;;;;;;;;;;5092916;28;20024;-77
2023/09/25 02:23:19;;;;;;;0.98;0.70;;;;;;;;;;5097351;28;20042;-77
2023/09/25 02:25:45;;;;;;;1.33;0.80;;;;;;;;;;5097062;28;20046;-77
2023/09/25 02:28:11;;;;;;;0.82;0.75;;;;;;;;;;5096578;28;20028;-77
2023/09/25 02:30:37;;;;;;;1.13;0.80;;;;;;;;;;5095994;28;20074;-77
2023/09/25 02:33:04;;;;;;;0.63;0.60;;;;;;;;;;5095936;28;20059;-78
2023/09/25 02:35:31;;;;;;;1.80;0.82;;;;;;;;;;5095941;28;20483;-78
2023/09/25 02:37:58;;;;;;;1.85;0.93;;;;;;;;;;5095775;28;20062;-78
2023/09/25 02:40:24;;;;;;;0.82;0.73;;;;;;;;;;5095479;28;20019;-77
2023/09/25 02:42:50;;;;;;;0.73;0.65;;;;;;;;;;5095710;28;20097;-77
2023/09/25 02:45:16;;;;;;;1.17;0.90;;;;;;;;;;5095860;28;20486;-78
2023/09/25 02:47:43;;;;;;;1.48;0.80;;;;;;;;;;5095326;28;20046;-77
2023/09/25 02:50:10;;;;;;;1.88;0.90;;;;;;;;;;5095597;28;20021;-77
2023/09/25 02:52:36;;;;;;;0.98;0.63;;;;;;;;;;5095536;28;20063;-77
2023/09/25 02:55:03;;;;;;;1.38;0.77;;;;;;;;;;5095179;28;20020;-78
2023/09/25 02:57:29;;;;;;;0.70;0.70;;;;;;;;;;5095708;28;20422;-78
2023/09/25 02:59:55;;;;;;;1.25;0.73;;;;;;;;;;5096642;28;20034;-77
2023/09/25 03:02:22;;;;;;;0.90;0.70;;;;;;;;;;5095328;28;20020;-77
2023/09/25 03:04:48;;;;;;;0.60;0.60;;;;;;;;;;5096295;28;20111;-77
2023/09/25 03:07:14;;;;;;;0.60;0.60;;;;;;;;;;5095903;28;20406;-78
2023/09/25 03:09:40;;;;;;;1.08;0.63;;;;;;;;;;5095274;28;20024;-77
2023/09/25 03:12:07;;;;;;;1.30;0.77;;;;;;;;;;5095121;28;20108;-78
2023/09/25 03:14:33;;;;;;;1.00;0.73;;;;;;;;;;5094829;28;20016;-77
2023/09/25 03:16:59;;;;;;;0.50;0.50;;;;;;;;;;5096378;28;20028;-78
2023/09/25 03:19:25;;;;;;;1.80;0.70;;;;;;;;;;5094804;28;20052;-77
2023/09/25 03:21:51;;;;;;;1.67;0.82;;;;;;;;;;5095930;28;20020;-77
2023/09/25 03:24:17;;;;;;;1.17;0.90;;;;;;;;;;5094913;28;20115;-78
2023/09/25 03:26:43;;;;;;;1.80;0.98;;;;;;;;;;5095825;28;20422;-77
2023/09/25 03:29:10;;;;;;;2.17;0.93;;;;;;;;;;5094518;28;20024;-77
2023/09/25 03:31:36;;;;;;;1.50;0.85;;;;;;;;;;5096660;28;20028;-77
2023/09/25 03:34:02;;;;;;;1.63;0.82;;;;;;;;;;5093850;28;20025;-77
2023/09/25 03:36:28;;;;;;;1.17;0.70;;;;;;;;;;5094445;28;20467;-77
2023/09/25 03:38:56;;;;;;;0.50;0.50;;;;;;;;;;5094634;28;20073;-77
2023/09/25 03:41:22;;;;;;;0.85;0.60;;;;;;;;;;5094697;28;20419;-77
2023/09/25 03:43:48;;;;;;;0.60;0.60;;;;;;;;;;5095256;28;20021;-78
2023/09/25 03:46:14;;;;;;;0.57;0.57;;;;;;;;;;5095014;28;20372;-78
2023/09/25 03:48:40;;;;;;;0.90;0.70;;;;;;;;;;5094477;28;20029;-77
2023/09/25 03:51:07;;;;;;;0.60;0.60;;;;;;;;;;5094222;28;20115;-78
2023/09/25 03:53:33;;;;;;;0.90;0.70;;;;;;;;;;5094339;28;20020;-78
2023/09/25 03:55:59;;;;;;;1.55;0.75;;;;;;;;;;5094154;28;20030;-77
2023/09/25 03:58:25;;;;;;;0.70;0.70;;;;;;;;;;5094238;28;20032;-77
2023/09/25 04:00:52;;;;;;;0.90;0.68;;;;;;;;;;5094376;28;20043;-77
2023/09/25 04:03:19;;;;;;;0.50;0.50;;;;;;;;;;5094334;28;20482;-78
2023/09/25 04:05:45;;;;;;;0.65;0.65;;;;;;;;;;5094124;28;20383;-78
2023/09/25 04:08:11;;;;;;;0.70;0.70;;;;;;;;;;5095084;28;20024;-77
2023/09/25 04:10:37;;;;;;;0.63;0.63;;;;;;;;;;5093685;28;20059;-78
2023/09/25 04:13:04;;;;;;;1.08;0.80;;;;;;;;;;5095019;28;20020;-77
2023/09/25 04:15:31;;;;;;;0.98;0.88;;;;;;;;;;5095306;28;20387;-77
2023/09/25 04:17:57;;;;;;;0.60;0.60;;;;;;;;;;5094864;28;20024;-77
2023/09/25 04:20:26;;;;;;;1.00;0.70;;;;;;;;;;5093742;28;20039;-78
2023/09/25 04:22:53;;;;;;;1.17;0.93;;;;;;;;;;5095112;28;20099;-77
2023/09/25 04:25:20;;;;;;;2.28;0.80;;;;;;;;;;5093436;28;20020;-77
2023/09/25 04:27:50;;;;;;;1.63;0.73;;;;;;;;;;5093668;28;20024;-77
2023/09/25 04:30:20;;;;;;;0.68;0.68;;;;;;;;;;5094124;28;20390;-77
2023/09/25 04:32:46;;;;;;;0.60;0.60;;;;;;;;;;5093276;28;20016;-77
2023/09/25 04:35:13;;;;;;;0.55;0.55;;;;;;;;;;5093567;28;20024;-77
2023/09/25 04:37:40;;;;;;;5.53;0.73;;;;;;;;;;5093487;28;20028;-77
2023/09/25 04:40:14;;;;;;;1.15;0.80;;;;;;;;;;5094460;28;20066;-76
2023/09/25 04:42:44;;;;;;;0.85;0.70;;;;;;;;;;5095211;28;20023;-77
2023/09/25 04:45:12;;;;;;;1.10;0.73;;;;;;;;;;5093119;28;20016;-77
2023/09/25 04:47:41;;;;;;;0.70;0.70;;;;;;;;;;5094694;28;20024;-78
2023/09/25 04:50:08;;;;;;;1.13;0.70;;;;;;;;;;5093550;28;20069;-77
2023/09/25 04:52:34;;;;;;;1.88;1.00;;;;;;;;;;5093153;28;20031;-77
2023/09/25 04:55:00;;;;;;;1.75;0.88;;;;;;;;;;5093355;28;20020;-76
2023/09/25 04:57:26;;;;;;;3.83;0.95;;;;;;;;;;5094254;28;20432;-79
2023/09/25 04:59:52;;;;;;;1.55;0.82;;;;;;;;;;5092940;28;20024;-77
2023/09/25 05:02:19;;;;;;;1.85;1.00;;;;;;;;;;5093083;28;20031;-77
2023/09/25 05:04:45;;;;;;;0.95;0.70;;;;;;;;;;5093602;28;20482;-79
2023/09/25 05:07:11;;;;;;;0.93;0.70;;;;;;;;;;5092922;28;20032;-77
2023/09/25 05:09:37;;;;;;;1.55;0.80;;;;;;;;;;5093383;28;20024;-77
2023/09/25 05:12:04;;;;;;;1.63;0.90;;;;;;;;;;5092941;28;20027;-78
2023/09/25 05:14:30;;;;;;;0.85;0.70;;;;;;;;;;5092678;28;20117;-79
2023/09/25 05:16:56;;;;;;;1.75;0.70;;;;;;;;;;5094124;28;20115;-78
2023/09/25 05:19:22;;;;;;;0.98;0.70;;;;;;;;;;5093152;28;20048;-78
2023/09/25 05:21:48;;;;;;;2.08;1.00;;;;;;;;;;5094436;28;20016;-78
2023/09/25 05:24:15;;;;;;;0.70;0.65;;;;;;;;;;5094404;28;20422;-78
2023/09/25 05:26:41;;;;;;;1.73;0.80;;;;;;;;;;5093755;28;20032;-79
2023/09/25 05:29:07;;;;;;;1.38;0.70;;;;;;;;;;5092953;28;20371;-78
2023/09/25 05:31:33;;;;;;;0.82;0.75;;;;;;;;;;5094510;28;20103;-78
2023/09/25 05:33:59;;;;;;;0.93;0.77;;;;;;;;;;5092525;28;20089;-81
2023/09/25 05:36:25;;;;;;;0.50;0.50;;;;;;;;;;5092953;28;20039;-80
2023/09/25 05:38:55;;;;;;;0.60;0.60;;;;;;;;;;5093780;28;20503;-81
2023/09/25 05:41:21;;;;;;;0.70;0.70;;;;;;;;;;5092479;28;20059;-80
2023/09/25 05:43:47;;;;;;;0.60;0.60;;;;;;;;;;5093988;28;20149;-81
2023/09/25 05:46:13;;;;;;;0.60;0.60;;;;;;;;;;5093967;28;20032;-80
2023/09/25 05:48:40;;;;;;;0.82;0.82;;;;;;;;;;5092164;28;20024;-82
2023/09/25 05:51:06;;;;;;;1.20;0.70;;;;;;;;;;5094061;28;20103;-82
2023/09/25 05:53:32;;;;;;;1.25;0.93;;;;;;;;;;5092702;28;20023;-79
2023/09/25 05:55:58;;;;;;;0.60;0.60;;;;;;;;;;5093386;28;20024;-81
2023/09/25 05:58:25;;;;;;;0.73;0.60;;;;;;;;;;5098170;28;20073;-81
2023/09/25 06:00:51;;;;;;;1.08;0.70;;;;;;;;;;5096794;28;20498;-82
2023/09/25 06:03:18;;;;;;;0.68;0.68;;;;;;;;;;5096530;28;20059;-82
2023/09/25 06:05:44;;;;;;;0.60;0.60;;;;;;;;;;5097943;28;20032;-81
2023/09/25 06:08:10;;;;;;;1.17;0.80;;;;;;;;;;5096838;28;20078;-83
2023/09/25 06:10:36;;;;;;;1.17;0.80;;;;;;;;;;5096358;28;20034;-82
2023/09/25 06:13:02;;;;;;;1.45;1.00;;;;;;;;;;5097817;28;20023;-80
2023/09/25 06:15:30;;;;;;;1.80;0.98;;;;;;;;;;5096630;28;20127;-81
2023/09/25 06:17:59;;;;;;;1.45;0.82;;;;;;;;;;5097038;28;20425;-81
2023/09/25 06:20:26;;;;;;;1.75;0.90;;;;;;;;;;5096799;28;20055;-81
2023/09/25 06:22:52;;;;;;;1.27;0.85;;;;;;;;;;5096975;28;20020;-80
2023/09/25 06:25:19;;;;;;;0.65;0.65;;;;;;;;;;5097383;28;20099;-81
2023/09/25 06:27:45;;;;;;;1.27;0.90;;;;;;;;;;5096401;28;20017;-82
2023/09/25 06:30:12;;;;;;;0.75;0.70;;;;;;;;;;5096984;28;20075;-80
2023/09/25 06:32:38;;;;;;;0.90;0.73;;;;;;;;;;5096561;28;20398;-82
2023/09/25 06:35:06;;;;;;;0.70;0.70;;;;;;;;;;5096396;28;20047;-80
2023/09/25 06:37:32;;;;;;;0.60;0.60;;;;;;;;;;5096422;28;20024;-80
2023/09/25 06:39:58;;;;;;;0.88;0.73;;;;;;;;;;5097847;28;20024;-81
2023/09/25 06:42:24;;;;;;;0.60;0.60;;;;;;;;;;5096076;28;20103;-81
2023/09/25 06:44:50;;;;;;;1.00;0.73;;;;;;;;;;5095864;28;20026;-81
2023/09/25 06:47:16;;;;;;;0.93;0.77;;;;;;;;;;5096111;28;20483;-81
2023/09/25 06:49:42;;;;;;;0.90;0.70;;;;;;;;;;5095572;28;20032;-81
2023/09/25 06:52:08;;;;;;;1.58;1.00;;;;;;;;;;5096725;28;20388;-80
2023/09/25 06:54:34;;;;;;;0.80;0.68;;;;;;;;;;5095839;28;20058;-81
2023/09/25 06:57:01;;;;;;;1.33;0.80;;;;;;;;;;5095807;28;20383;-80
2023/09/25 06:59:27;;;;;;;0.65;0.65;;;;;;;;;;5095263;28;20035;-79
2023/09/25 07:01:54;;;;;;;0.70;0.70;;;;;;;;;;5095669;28;20020;-81
2023/09/25 07:04:21;;;;;;;0.80;0.80;;;;;;;;;;5095804;28;20024;-81
2023/09/25 07:06:47;;;;;;;0.75;0.68;;;;;;;;;;5094627;28;20157;-82
2023/09/25 07:09:14;;;;;;;1.35;0.88;;;;;;;;;;5095901;28;20483;-81
2023/09/25 07:11:41;;;;;;;0.98;0.80;;;;;;;;;;5098072;28;20387;-82
2023/09/25 07:14:07;;;;;;;2.90;0.80;;;;;;;;;;5095310;28;20026;-81
2023/09/25 07:16:35;;;;;;;1.70;1.00;;;;;;;;;;5096634;28;20021;-81
2023/09/25 07:19:01;;;;;;;2.72;1.45;;;;;;;;;;5095063;28;20050;-82
2023/09/25 07:21:27;;;;;;;1.73;1.00;;;;;;;;;;5096111;28;20078;-80
2023/09/25 07:23:53;;;;;;;1.50;0.95;;;;;;;;;;5105868;28;20012;-81
2023/09/25 07:26:19;;;;;;;5.03;1.17;;;;;;;;;;5120512;28;20088;-80
2023/09/25 07:28:49;;;;;;;2.50;1.20;;;;;;;;;;5098271;28;20028;-80
2023/09/25 07:31:19;;;;;;;1.55;0.90;;;;;;;;;;5098689;28;20055;-80
2023/09/25 07:33:45;;;;;;;1.83;1.00;;;;;;;;;;5095762;28;20097;-82
2023/09/25 07:36:12;;;;;;;1.48;0.90;;;;;;;;;;5095082;28;20027;-81
2023/09/25 07:38:38;;;;;;;1.85;1.00;;;;;;;;;;5095032;28;20472;-80
2023/09/25 07:41:05;;;;;;;1.30;0.90;;;;;;;;;;5094641;28;20024;-80
2023/09/25 07:43:32;;;;;;;1.63;0.98;;;;;;;;;;5095068;28;20030;-81
2023/09/25 07:45:59;;;;;;;1.27;0.82;;;;;;;;;;5094970;28;20054;-80
2023/09/25 07:48:25;;;;;;;2.28;0.90;;;;;;;;;;5094832;28;20025;-80
2023/09/25 07:50:55;;;;;;;1.83;0.95;;;;;;;;;;5094924;28;20028;-84
2023/09/25 07:53:23;;;;;;;1.55;0.90;;;;;;;;;;5096002;28;20023;-79
2023/09/25 07:55:49;;;;;;;1.05;0.80;;;;;;;;;;5094480;28;20486;-80
2023/09/25 07:58:15;;;;;;;1.63;0.80;;;;;;;;;;5094678;28;20059;-80
2023/09/25 08:00:44;;;;;;;0.60;0.60;;;;;;;;;;5095888;28;20368;-79
2023/09/25 08:03:15;;;;;;;1.27;0.80;;;;;;;;;;5094127;28;20024;-80
2023/09/25 08:05:42;;;;;;;1.67;0.77;;;;;;;;;;5094500;28;20031;-82
2023/09/25 08:08:12;;;;;;;0.98;0.80;;;;;;;;;;5095322;28;20016;-80
2023/09/25 08:10:41;;;;;;;1.95;0.98;;;;;;;;;;5094155;28;20027;-77
2023/09/25 08:13:07;;;;;;;0.95;0.80;;;;;;;;;;5094306;28;20388;-81
2023/09/25 08:15:35;;;;;;;1.77;1.05;;;;;;;;;;5093891;28;20020;-80
2023/09/25 08:18:02;;;;;;;1.33;0.82;;;;;;;;;;5095266;28;20372;-78
2023/09/25 08:20:28;;;;;;;2.13;0.98;;;;;;;;;;5093130;28;20110;-78
2023/09/25 08:22:54;;;;;;;1.35;0.90;;;;;;;;;;5093602;28;20032;-78
2023/09/25 08:25:21;;;;;;;1.13;0.75;;;;;;;;;;5093842;28;20027;-78
2023/09/25 08:27:48;;;;;;;1.30;0.75;;;;;;;;;;5093707;28;20054;-79
2023/09/25 08:30:16;;;;;;;1.17;0.80;;;;;;;;;;5093490;28;20026;-77
2023/09/25 08:32:42;;;;;;;1.55;1.05;;;;;;;;;;5093824;28;20026;-78
2023/09/25 08:35:09;;;;;;;1.65;0.93;;;;;;;;;;5093652;28;20058;-79
2023/09/25 08:37:37;;;;;;;2.38;0.88;;;;;;;;;;5093376;28;20032;-79
2023/09/25 08:40:04;;;;;;;2.17;1.02;;;;;;;;;;5093629;28;20491;-78
2023/09/25 08:42:30;;;;;;;2.53;0.98;;;;;;;;;;5093638;28;20439;-78
2023/09/25 08:44:59;;;;;;;1.83;0.95;;;;;;;;;;5093382;28;20072;-78
2023/09/25 08:47:26;;;;;;;1.27;0.80;;;;;;;;;;5093373;28;20032;-78
2023/09/25 08:49:53;;;;;;;1.40;0.90;;;;;;;;;;5093937;28;20027;-77
2023/09/25 08:52:20;;;;;;;1.10;0.70;;;;;;;;;;5093284;28;20114;-76
2023/09/25 08:54:48;;;;;;;1.63;0.90;;;;;;;;;;5093201;28;20036;-77
2023/09/25 08:57:15;;;;;;;1.90;0.80;;;;;;;;;;5092942;28;20438;-77
2023/09/25 08:59:44;;;;;;;2.22;1.10;;;;;;;;;;5093205;28;20043;-76
2023/09/25 09:02:12;;;;;;;1.50;0.98;;;;;;;;;;5094559;28;20031;-77
2023/09/25 09:04:38;;;;;;;2.92;1.20;;;;;;;;;;5092854;28;20376;-77
2023/09/25 09:07:10;;;;;;;2.13;1.20;;;;;;;;;;5093101;28;20098;-76
2023/09/25 09:09:38;;;;;;;1.92;0.93;;;;;;;;;;5094379;28;20023;-76
2023/09/25 09:12:04;;;;;;;4.22;0.90;;;;;;;;;;5092950;28;20020;-77
2023/09/25 09:14:37;;;;;;;2.25;1.20;;;;;;;;;;5094306;28;20024;-77
2023/09/25 09:17:07;;;;;;;2.67;1.20;;;;;;;;;;5093366;28;20030;-77
2023/09/25 09:19:37;;;;;;;2.15;1.30;;;;;;;;;;5092407;28;20048;-78
2023/09/25 09:22:06;;;;;;;3.03;1.60;;;;;;;;;;5094246;28;20086;-78
2023/09/25 09:24:39;;;;;;;3.05;1.33;;;;;;;;;;5092800;28;20016;-78
2023/09/25 09:27:08;;;;;;;2.67;1.25;;;;;;;;;;5092422;28;20028;-78
2023/09/25 09:29:38;;;;;;;4.82;1.30;;;;;;;;;;5092813;28;20043;-78
2023/09/25 09:32:04;;;;;;;2.50;1.20;;;;;;;;;;5091763;28;20026;-78
2023/09/25 09:34:30;;;;;;;2.03;1.10;;;;;;;;;;5093463;28;20020;-79
2023/09/25 09:36:56;;;;;;;2.50;1.30;;;;;;;;;;5092796;28;20057;-79
2023/09/25 09:39:26;;;;;;;2.15;1.15;;;;;;;;;;5092271;28;20020;-78
2023/09/25 09:41:56;;;;;;;1.73;0.93;;;;;;;;;;5092648;28;20406;-79
2023/09/25 09:44:22;;;;;;;1.45;0.90;;;;;;;;;;5093610;28;20027;-77
2023/09/25 09:46:52;;;;;;;2.30;0.90;;;;;;;;;;5093604;28;20076;-78
2023/09/25 09:49:21;;;;;;;1.13;0.80;;;;;;;;;;5093923;28;20451;-77
2023/09/25 09:51:50;;;;;;;0.85;0.75;;;;;;;;;;5092182;28;20031;-79
2023/09/25 09:54:17;;;;;;;1.05;0.80;;;;;;;;;;5093179;28;20388;-79
2023/09/25 09:56:43;;;;;;;1.33;0.82;;;;;;;;;;5092506;28;20030;-78
2023/09/25 09:59:10;;;;;;;2.30;1.10;;;;;;;;;;5093140;28;20016;-79
2023/09/25 10:01:37;;;;;;;1.55;0.95;;;;;;;;;;5092382;28;20130;-79
2023/09/25 10:04:05;;;;;;;1.33;0.85;;;;;;;;;;5092498;28;20166;-79
2023/09/25 10:06:31;;;;;;;1.45;0.93;;;;;;;;;;5092358;28;20032;-78
2023/09/25 10:09:07;;;;;;;0.80;0.70;;;;;;;;;;5092116;28;20020;-78
2023/09/25 10:11:33;;;;;;;2.25;1.00;;;;;;;;;;5092317;28;20028;-79
2023/09/25 10:14:06;;;;;;;1.50;0.80;;;;;;;;;;5091986;28;20475;-77
2023/09/25 10:16:32;;;;;;;;;;;;;;;;;;5092694;28;20028;-78
2023/09/25 10:18:58;;;;;;;1.13;0.80;;;;;;;;;;5109094;28;19946;-77
2023/09/25 10:21:24;;;;;;;2.50;0.93;;;;;;;;;;5091930;28;20050;-78
2023/09/25 10:23:54;;;;;;;1.23;0.80;;;;;;;;;;5092228;28;20487;-78
2023/09/25 10:26:25;;;;;;;2.47;1.02;;;;;;;;;;5092515;28;20504;-78
2023/09/25 10:28:58;;;;;;;1.35;1.00;;;;;;;;;;5091949;28;20439;-78
2023/09/25 10:31:29;;;;;;;1.88;0.93;;;;;;;;;;5092730;28;20413;-77
2023/09/25 10:33:59;;;;;;;2.42;1.13;;;;;;;;;;5092257;28;20475;-78
2023/09/25 10:36:55;;;;;;;3.10;1.40;;;;;;;;;;5091882;28;20032;-78
2023/09/25 10:39:21;;;;;;;1.40;0.90;;;;;;;;;;5092612;28;20063;-78
2023/09/25 10:41:59;;;;;;;2.50;1.00;;;;;;;;;;5093419;28;20020;-78
2023/09/25 10:44:25;;;;;;;3.22;1.25;;;;;;;;;;5095954;28;20448;-78
2023/09/25 10:46:52;;;;;;;1.95;1.25;;;;;;;;;;5095829;28;20475;-78
2023/09/25 10:49:18;;;;;;;1.33;0.80;;;;;;;;;;5095610;28;20052;-77
2023/09/25 10:51:44;;;;;;;3.42;1.70;;;;;;;;;;5095743;28;20464;-77
2023/09/25 10:54:10;;;;;;;1.42;0.98;;;;;;;;;;5095814;28;20024;-79
2023/09/25 10:56:36;;;;;;;1.42;0.93;;;;;;;;;;5096866;28;20035;-78
2023/09/25 10:59:03;;;;;;;7.50;1.08;;;;;;;;;;5095833;28;20048;-78
2023/09/25 11:01:30;;;;;;;2.72;1.20;;;;;;;;;;5120756;28;20072;-79
2023/09/25 11:03:59;;;;;;;1.27;0.82;;;;;;;;;;5103309;28;20032;-79
2023/09/25 11:06:26;;;;;;;2.22;1.05;;;;;;;;;;5100676;28;20051;-78
2023/09/25 11:09:13;;;;;;;1.38;0.88;;;;;;;;;;5096465;28;20051;-79
2023/09/25 11:11:42;;;;;;;2.10;1.02;;;;;;;;;;5091257;28;20115;-79
2023/09/25 11:14:08;;;;;;;2.22;1.30;;;;;;;;;;5095345;28;20024;-79
2023/09/25 11:16:35;;;;;;;1.83;1.10;;;;;;;;;;5095334;28;20057;-78
2023/09/25 11:19:15;;;;;;;1.88;0.88;;;;;;;;;;5094669;28;20079;-79
2023/09/25 11:21:45;;;;;;;1.88;1.00;;;;;;;;;;5096714;28;20397;-79
2023/09/25 11:24:12;;;;;;;2.10;1.20;;;;;;;;;;5096254;28;20100;-79
2023/09/25 11:26:38;;;;;;;3.70;1.50;;;;;;;;;;5095672;28;20028;-79
2023/09/25 11:29:08;;;;;;;2.65;1.10;;;;;;;;;;5095278;28;20029;-79
2023/09/25 11:31:35;;;;;;;3.65;1.38;;;;;;;;;;5094763;28;20054;-80
2023/09/25 11:34:02;;;;;;;2.92;1.33;;;;;;;;;;5095125;28;20024;-79
2023/09/25 11:36:30;;;;;;;2.47;1.45;;;;;;;;;;5095391;28;20020;-79
2023/09/25 11:38:57;;;;;;;2.65;1.42;;;;;;;;;;5096121;28;20024;-79
2023/09/25 11:41:23;;;;;;;2.80;1.38;;;;;;;;;;5078300;28;20054;-79
2023/09/25 11:43:49;;;;;;;3.08;1.40;;;;;;;;;;5094752;28;20024;-79
2023/09/25 11:46:15;;;;;;;3.05;1.50;;;;;;;;;;5095571;28;20097;-79
2023/09/25 11:48:42;;;;;;;2.80;1.20;;;;;;;;;;5094640;28;20020;-79
2023/09/25 11:51:09;;;;;;;3.45;1.77;;;;;;;;;;5094621;28;20380;-79
2023/09/25 11:53:35;;;;;;;3.78;1.75;;;;;;;;;;5093327;28;20024;-79
2023/09/25 11:56:03;;;;;;;5.30;1.40;;;;;;;;;;5094825;28;20034;-80
2023/09/25 11:58:30;;;;;;;3.65;1.80;;;;;;;;;;5095746;28;20051;-81
2023/09/25 12:00:56;;;;;;;3.58;1.88;;;;;;;;;;5095338;28;20052;-81
2023/09/25 12:03:22;;;;;;;3.17;1.52;;;;;;;;;;5094352;28;20379;-80
2023/09/25 12:05:48;;;;;;;3.30;1.40;;;;;;;;;;5094350;28;20062;-78
2023/09/25 12:08:17;;;;;;;3.17;1.15;;;;;;;;;;5094141;28;20051;-79
2023/09/25 12:10:43;;;;;;;2.58;1.30;;;;;;;;;;5094509;28;20613;-79
2023/09/25 12:13:09;;;;;;;4.07;1.65;;;;;;;;;;5095668;28;20027;-79
2023/09/25 12:15:36;;;;;;;3.17;1.70;;;;;;;;;;5094151;28;20491;-79
2023/09/25 12:18:05;;;;;;;2.88;1.67;;;;;;;;;;5095057;28;20024;-79
2023/09/25 12:20:32;;;;;;;3.58;1.75;;;;;;;;;;5094235;28;20387;-79
2023/09/25 12:22:58;;;;;;;3.60;1.85;;;;;;;;;;5095570;28;20064;-80
2023/09/25 12:25:24;;;;;;;2.38;1.30;;;;;;;;;;5093996;28;20016;-79
2023/09/25 12:27:51;;;;;;;3.80;1.73;;;;;;;;;;5094790;28;20060;-80
2023/09/25 12:30:19;;;;;;;4.53;2.00;;;;;;;;;;5093733;28;20020;-79
2023/09/25 12:32:47;;;;;;;3.40;1.77;;;;;;;;;;5093754;28;20127;-79
2023/09/25 12:35:15;;;;;;;3.22;1.58;;;;;;;;;;5093215;28;20024;-80
2023/09/25 12:37:41;;;;;;;3.13;1.48;;;;;;;;;;5093626;28;20020;-79
2023/09/25 12:40:08;;;;;;;2.60;1.42;;;;;;;;;;5093605;28;20024;-80
2023/09/25 12:42:34;;;;;;;3.65;1.95;;;;;;;;;;5093652;28;20024;-79
2023/09/25 12:45:00;;;;;;;3.20;1.83;;;;;;;;;;5094419;28;20024;-79
2023/09/25 12:47:27;;;;;;;2.65;1.30;;;;;;;;;;5093415;28;20036;-80
2023/09/25 12:49:54;;;;;;;5.43;1.70;;;;;;;;;;5093185;28;20118;-79
2023/09/25 12:52:20;;;;;;;2.75;1.50;;;;;;;;;;5094712;28;20020;-79
2023/09/25 12:54:49;;;;;;;4.13;1.80;;;;;;;;;;5093278;28;20035;-79
2023/09/25 12:57:15;;;;;;;2.78;1.60;;;;;;;;;;5093064;28;20118;-79
2023/09/25 12:59:42;;;;;;;2.95;1.73;;;;;;;;;;5093350;28;20027;-79
2023/09/25 13:02:08;;;;;;;4.50;1.95;;;;;;;;;;5094197;28;20095;-82
2023/09/25 13:04:34;;;;;;;3.00;1.35;;;;;;;;;;5093287;28;20360;-80
2023/09/25 13:07:00;;;;;;;3.05;1.58;;;;;;;;;;5093233;28;20028;-79
2023/09/25 13:09:26;;;;;;;2.95;1.67;;;;;;;;;;5092874;28;20545;-79
2023/09/25 13:11:52;;;;;;;3.38;1.40;;;;;;;;;;5076553;28;20039;-80
2023/09/25 13:14:18;;;;;;;3.13;1.70;;;;;;;;;;5076349;28;20020;-79
2023/09/25 13:16:45;;;;;;;7.47;2.15;;;;;;;;;;5094149;28;20379;-79
2023/09/25 13:19:11;;;;;;;3.97;2.03;;;;;;;;;;5094294;28;20055;-79
2023/09/25 13:21:37;;;;;;;4.00;2.08;;;;;;;;;;5093607;28;20070;-79
2023/09/25 13:24:04;;;;;;;3.63;1.80;;;;;;;;;;5093936;28;20095;-79
2023/09/25 13:26:30;;;;;;;3.45;1.83;;;;;;;;;;5094202;28;20025;-79
2023/09/25 13:28:56;;;;;;;3.72;1.70;;;;;;;;;;5093082;28;20058;-80
2023/09/25 13:31:23;;;;;;;3.03;1.58;;;589.60;2432.00;;;;;;5092615;28;20490;-80
2023/09/25 13:33:49;;;;;;;3.30;1.75;;;589.50;2432.00;;;;;;5093971;28;20020;-82
2023/09/25 13:36:16;;;;;;;9.38;2.35;;;589.60;2432.00;;;;;;5093136;28;20032;-79
2023/09/25 13:38:42;;;;;;;3.95;2.22;;;589.60;2432.00;;;;;;5093119;28;20024;-82
2023/09/25 13:41:10;;;;;;;3.53;2.10;;;589.60;2432.00;;;;;;5092897;28;20383;-82
2023/09/25 13:43:38;;;;;;;6.78;1.98;;;589.60;2432.00;;;;;;5093751;28;20028;-82
2023/09/25 13:46:06;;;;;;;2.88;1.65;;;589.70;2432.00;;;;;;5092998;28;20043;-81
2023/09/25 13:48:33;;;;;;;4.38;2.17;;;589.60;2432.00;;;;;;5092425;28;20032;-80
2023/09/25 13:50:59;;;;;;;3.58;1.88;;;589.60;2432.00;;;;;;5094038;28;20451;-82
2023/09/25 13:53:25;;;;;;;5.13;1.98;;;589.60;2432.00;;;;;;5093937;28;20040;-82
2023/09/25 13:55:51;;;;;;;7.05;2.78;;;589.50;2432.00;;;;;;5093222;28;20081;-82
2023/09/25 13:58:17;;;;;;;5.30;2.58;;;589.50;2432.00;;;;;;5092990;28;20028;-80
2023/09/25 14:00:43;;;;;;;6.22;1.92;;;589.60;2432.00;;;;;;5094069;28;20017;-81
2023/09/25 14:03:09;;;;;;;3.70;1.92;;;589.60;2432.00;;;;;;5094130;28;20058;-80
2023/09/25 14:05:36;;;;;;;5.00;2.40;;;589.60;2432.00;;;;;;5092791;28;20119;-86
2023/09/25 14:08:02;;;;;;;6.53;2.33;;;589.60;2432.00;;;;;;5093210;28;20024;-82
2023/09/25 14:10:28;;;;;;;4.95;2.60;;;589.70;2432.00;;;;;;5093116;28;20032;-84
2023/09/25 14:12:53;;;;;;;3.70;2.05;;;589.70;2432.00;;;;;;5093048;28;20486;-80
2023/09/25 14:15:19;;;;;;;5.68;1.73;;;589.70;2432.00;;;;;;5092792;28;20016;-82
2023/09/25 14:17:45;;;;;;;3.08;1.65;;;589.70;2432.00;;;;;;5094510;28;20040;-82
2023/09/25 14:20:11;;;;;;;3.53;1.83;;;589.70;2432.00;;;;;;5097782;28;20170;-82
2023/09/25 14:22:38;;;;;;;4.40;2.33;;;589.70;2432.00;;;;;;5096764;28;20481;-85
2023/09/25 14:25:06;;;;;;;3.90;1.75;;;589.70;2432.00;;;;;;5096932;28;20053;-81
2023/09/25 14:27:33;;;;;;;4.47;2.53;;;589.70;2432.00;;;;;;5097932;28;20028;-82
2023/09/25 14:29:59;;;;;;;3.40;1.92;;;589.70;2432.00;;;;;;5079594;28;20058;-82